Time;durP1;ratioP1;P1;durP2;ratioP2;P2;SDS_P1;SDS_P2;PMS_P1;PMS_P2;Temp;Humidity;BMP_temperature;BMP_pressure;BME280_temperature;BME280_humidity;BME280_pressure;Samples;Min_cycle;Max_cycle;Signal;HPM_P1;HPM_P2
2022/12/20 00:01:57;;;;;;;24.77;13.38;;;;;;;8.47;61.69;101505.16;4968542;28;96870;-65
2022/12/20 00:04:23;;;;;;;26.25;12.77;;;;;;;8.36;62.02;101515.88;4961812;28;98332;-65
2022/12/20 00:06:50;;;;;;;25.83;12.88;;;;;;;8.47;61.41;101509.59;4967347;28;97897;-65
2022/12/20 00:09:17;;;;;;;29.00;14.25;;;;;;;8.52;61.72;101520.91;4967210;28;98029;-65
2022/12/20 00:11:43;;;;;;;28.30;13.93;;;;;;;8.51;61.74;101517.41;4970164;28;99098;-65
2022/12/20 00:14:10;;;;;;;25.95;12.77;;;;;;;8.47;61.39;101512.22;4964816;28;99153;-66
2022/12/20 00:16:38;;;;;;;25.48;13.50;;;;;;;8.57;61.46;101504.16;4966729;28;98887;-66
2022/12/20 00:19:06;;;;;;;27.67;13.90;;;;;;;8.67;60.78;101502.22;4964432;28;96781;-66
2022/12/20 00:21:34;;;;;;;24.50;12.70;;;;;;;8.71;60.72;101499.53;4965405;28;96899;-66
2022/12/20 00:24:01;;;;;;;28.15;13.32;;;;;;;8.68;60.32;101486.41;4964354;28;99373;-65
2022/12/20 00:26:30;;;;;;;31.20;13.40;;;;;;;8.76;60.40;101499.47;4970739;28;98773;-65
2022/12/20 00:28:57;;;;;;;25.95;12.73;;;;;;;8.66;60.54;101498.72;4958272;28;96773;-65
2022/12/20 00:31:26;;;;;;;26.75;13.10;;;;;;;8.79;60.49;101497.63;4963569;28;96990;-66
2022/12/20 00:33:56;;;;;;;26.17;13.18;;;;;;;8.82;60.11;101487.94;4971275;28;98703;-65
2022/12/20 00:36:24;;;;;;;27.90;13.63;;;;;;;8.75;59.93;101476.63;4967947;28;99246;-66
2022/12/20 00:38:52;;;;;;;25.63;12.30;;;;;;;8.63;60.64;101476.84;4966567;28;96810;-66
2022/12/20 00:41:20;;;;;;;25.40;12.60;;;;;;;8.73;60.34;101481.03;4963384;28;96886;-66
2022/12/20 00:43:47;;;;;;;28.08;14.25;;;;;;;8.94;59.56;101480.69;4966277;28;98910;-65
2022/12/20 00:46:18;;;;;;;24.10;12.73;;;;;;;8.80;59.78;101485.31;4972116;28;99622;-66
2022/12/20 00:48:45;;;;;;;26.65;13.13;;;;;;;8.90;59.81;101480.78;4967420;28;97621;-65
2022/12/20 00:51:14;;;;;;;29.65;14.38;;;;;;;8.68;60.26;101489.03;4975184;28;97071;-68
2022/12/20 00:53:41;;;;;;;25.35;12.60;;;;;;;8.70;60.24;101492.53;4971902;28;99257;-65
2022/12/20 00:56:08;;;;;;;25.00;13.27;;;;;;;8.74;59.92;101481.03;4969401;28;99388;-65
2022/12/20 00:58:38;;;;;;;30.15;13.18;;;;;;;8.77;60.27;101480.13;4970802;28;96712;-68
2022/12/20 01:01:06;;;;;;;26.00;13.07;;;;;;;8.82;59.78;101480.91;4963106;28;98578;-66
2022/12/20 01:03:42;;;;;;;28.45;12.85;;;;;;;8.93;59.34;101484.22;4964997;28;99548;-65
2022/12/20 01:06:10;;;;;;;25.95;13.32;;;;;;;8.89;59.49;101492.22;4957899;28;99328;-65
2022/12/20 01:08:38;;;;;;;27.50;13.52;;;;;;;9.01;59.17;101479.69;4962743;28;96888;-65
2022/12/20 01:11:06;;;;;;;26.40;12.77;;;;;;;8.95;59.01;101486.84;4969839;28;96865;-64
2022/12/20 01:13:34;;;;;;;23.33;12.65;;;;;;;9.04;58.94;101492.84;4969278;28;99130;-65
2022/12/20 01:16:04;;;;;;;26.17;12.98;;;;;;;9.13;58.73;101495.28;4966220;28;99053;-67
2022/12/20 01:18:31;;;;;;;26.80;13.10;;;;;;;9.22;58.80;101488.13;4962984;28;97224;-65
2022/12/20 01:21:01;;;;;;;26.80;11.90;;;;;;;9.10;58.53;101490.09;4962341;28;96847;-66
2022/12/20 01:23:28;;;;;;;21.80;12.07;;;;;;;9.17;58.66;101481.19;4963974;28;98901;-65
2022/12/20 01:25:57;;;;;;;26.63;12.82;;;;;;;9.02;58.88;101475.28;4963833;28;99210;-65
2022/12/20 01:28:24;;;;;;;22.30;12.23;;;;;;;8.91;59.51;101488.69;4962060;28;96916;-65
2022/12/20 01:30:50;;;;;;;24.20;12.88;;;;;;;9.01;59.02;101484.97;4970475;28;97003;-65
2022/12/20 01:33:16;;;;;;;26.30;11.70;;;;;;;8.99;59.54;101485.91;4971421;28;100019;-67
2022/12/20 01:35:43;;;;;;;24.95;12.23;;;;;;;9.10;58.87;101484.81;4967322;28;98852;-65
2022/12/20 01:38:09;;;;;;;26.38;13.65;;;;;;;9.17;58.80;101478.53;4966899;28;96799;-65
2022/12/20 01:40:39;;;;;;;24.27;12.13;;;;;;;9.20;58.76;101483.75;4961425;28;97803;-65
2022/12/20 01:43:12;;;;;;;22.65;12.25;;;;;;;9.09;58.87;101467.25;4970888;28;98912;-65
2022/12/20 01:45:38;;;;;;;26.95;11.48;;;;;;;9.17;58.47;101465.34;4970698;28;99108;-66
2022/12/20 01:48:05;;;;;;;21.95;11.15;;;;;;;9.20;58.76;101465.28;4966742;28;96952;-65
2022/12/20 01:50:33;;;;;;;23.25;11.90;;;;;;;9.13;58.53;101463.66;4966252;28;97341;-65
2022/12/20 01:53:01;;;;;;;25.67;12.07;;;;;;;9.05;58.89;101462.94;4963376;28;101013;-64
2022/12/20 01:55:28;;;;;;;21.92;11.63;;;;;;;9.08;58.94;101464.63;4966609;28;98869;-65
2022/12/20 01:58:00;;;;;;;22.67;12.40;;;;;;;9.25;58.63;101461.72;4963314;28;97205;-66
2022/12/20 02:00:29;;;;;;;25.05;12.27;;;;;;;9.15;58.71;101464.50;4968585;28;96794;-65
2022/12/20 02:02:58;;;;;;;23.85;11.90;;;;;;;9.18;58.85;101464.47;4968571;28;98776;-65
2022/12/20 02:05:25;;;;;;;21.83;11.05;;;;;;;9.25;58.43;101467.00;4969874;28;98919;-66
2022/12/20 02:07:54;;;;;;;22.85;10.90;;;;;;;9.09;58.78;101458.47;4968181;28;96804;-66
2022/12/20 02:10:24;;;;;;;21.95;12.20;;;;;;;9.15;59.08;101463.63;4968029;28;96872;-66
2022/12/20 02:13:02;;;;;;;22.23;11.55;;;;;;;9.04;58.77;101455.94;4969905;28;98459;-66
2022/12/20 02:15:39;;;;;;;22.77;11.73;;;;;;;8.89;59.34;101458.81;4969269;28;99179;-66
2022/12/20 02:18:20;;;;;;;20.58;11.75;;;;;;;9.01;59.28;101465.66;4970537;28;96804;-65
2022/12/20 02:21:18;;;;;;;26.15;12.70;;;;;;;9.04;59.17;101468.25;4968908;28;98937;-65
2022/12/20 02:24:12;;;;;;;23.00;11.25;;;;;;;9.07;58.84;101463.75;4968588;28;98917;-67
2022/12/20 02:27:05;;;;;;;23.50;11.48;;;;;;;9.10;58.83;101454.94;4963740;28;102043;-65
2022/12/20 02:29:37;;;;;;;23.45;11.48;;;;;;;9.14;58.77;101462.75;4972461;28;96707;-66
2022/12/20 02:32:12;;;;;;;21.65;11.45;;;;;;;9.08;58.95;101460.25;4972530;28;96856;-66
2022/12/20 02:34:41;;;;;;;22.35;12.35;;;;;;;9.34;58.46;101459.75;4968836;28;100657;-65
2022/12/20 02:37:07;;;;;;;25.55;12.48;;;;;;;9.05;58.46;101457.69;4972108;28;98932;-65
2022/12/20 02:39:35;;;;;;;21.27;11.40;;;;;;;9.15;58.76;101456.59;4972565;28;96773;-65
2022/12/20 02:42:05;;;;;;;25.27;11.85;;;;;;;9.22;58.39;101457.34;4966702;28;96859;-66
2022/12/20 02:47:24;;;;;;;22.27;11.13;;;;;;;8.95;59.41;101442.91;4970758;28;97126;-65
2022/12/20 02:49:54;;;;;;;22.70;11.18;;;;;;;8.90;58.94;101433.34;4970589;28;97235;-67
2022/12/20 02:52:24;;;;;;;22.60;11.63;;;;;;;9.04;58.79;101426.94;4975354;28;97209;-66
2022/12/20 02:54:50;;;;;;;21.83;11.13;;;;;;;8.99;58.93;101427.91;4969582;28;99348;-65
2022/12/20 02:57:25;;;;;;;23.30;11.80;;;;;;;8.92;59.08;101421.88;4977838;28;98940;-64
2022/12/20 03:00:01;;;;;;;21.52;11.40;;;;;;;9.07;58.77;101421.59;4967708;28;97351;-65
2022/12/20 03:03:21;;;;;;;21.03;11.13;;;;;;;9.26;58.38;101414.19;4970630;28;97063;-66
2022/12/20 03:05:21;;;;;;;21.38;11.13;;;;;;;9.34;58.07;101403.50;4969514;28;98589;-66
2022/12/20 03:07:48;;;;;;;21.38;11.27;;;;;;;9.42;57.59;101396.31;4970207;28;99118;-65
2022/12/20 03:10:15;;;;;;;19.63;10.90;;;;;;;9.47;57.81;101399.72;4967995;28;96774;-66
2022/12/20 03:12:41;;;;;;;22.67;11.48;;;;;;;9.65;57.47;101393.19;4966451;28;96873;-66
2022/12/20 03:15:08;;;;;;;20.15;10.68;;;;;;;9.79;56.77;101401.66;4962886;28;98184;-65
2022/12/20 03:17:36;;;;;;;22.98;12.68;;;;;;;9.63;56.93;101398.50;4964930;28;99279;-66
2022/12/20 03:20:03;;;;;;;22.80;11.60;;;;;;;9.46;57.50;101382.13;4962801;28;96824;-65
2022/12/20 03:22:30;;;;;;;22.08;11.77;;;;;;;9.56;57.36;101386.34;4965970;28;96931;-67
2022/12/20 03:24:56;;;;;;;20.30;10.95;;;;;;;9.38;57.99;101392.88;4959129;28;98936;-65
2022/12/20 03:27:28;;;;;;;22.90;11.30;;;;;;;9.58;57.14;101389.81;4969523;28;99419;-66
2022/12/20 03:29:55;;;;;;;18.67;10.80;;;;;;;9.65;57.12;101398.47;4973801;28;96652;-65
2022/12/20 03:32:22;;;;;;;20.83;11.35;;;;;;;9.59;57.46;101410.88;4968731;28;97002;-66
2022/12/20 03:34:50;;;;;;;22.25;11.80;;;;;;;9.67;57.30;101415.13;4962829;28;102404;-66
2022/12/20 03:37:16;;;;;;;23.88;11.27;;;;;;;9.46;57.50;101403.25;4969465;28;98870;-66
2022/12/20 03:39:42;;;;;;;22.85;11.32;;;;;;;9.68;57.20;101416.88;4967238;28;96793;-66
2022/12/20 03:42:09;;;;;;;18.30;10.70;;;;;;;9.67;57.34;101405.44;4970452;28;97097;-65
2022/12/20 03:44:35;;;;;;;20.45;11.25;;;;;;;9.61;57.23;101408.22;4970267;28;98806;-65
2022/12/20 03:47:02;;;;;;;22.70;11.15;;;;;;;9.66;57.23;101422.16;4968601;28;98877;-66
2022/12/20 03:49:28;;;;;;;21.60;10.57;;;;;;;9.75;57.16;101418.47;4973459;28;97856;-65
2022/12/20 03:51:56;;;;;;;22.38;11.10;;;;;;;9.75;57.04;101416.72;4965129;28;96923;-66
2022/12/20 03:54:25;;;;;;;23.20;10.95;;;;;;;9.72;57.10;101408.84;4958916;28;99214;-65
2022/12/20 03:56:51;;;;;;;21.85;10.88;;;;;;;9.63;56.87;101400.28;4968845;28;98821;-65
2022/12/20 03:59:18;;;;;;;22.08;10.82;;;;;;;9.41;57.71;101389.28;4960815;28;98268;-65
2022/12/20 04:01:45;;;;;;;24.25;11.30;;;;;;;9.39;57.83;101391.94;4964793;28;98830;-66
2022/12/20 04:04:13;;;;;;;20.35;11.10;;;;;;;9.37;57.94;101403.44;4967967;28;98935;-65
2022/12/20 04:06:39;;;;;;;22.13;11.32;;;;;;;9.59;57.46;101410.88;4941714;28;99187;-67
2022/12/20 04:09:07;;;;;;;21.08;10.93;;;;;;;9.38;57.74;101418.38;4952220;28;96814;-65
2022/12/20 04:11:34;;;;;;;22.70;11.55;;;;;;;9.44;57.69;101412.97;4943028;28;96875;-65
2022/12/20 04:14:00;;;;;;;20.85;10.27;;;;;;;9.38;57.56;101406.06;4950878;28;98860;-67
2022/12/20 04:16:28;;;;;;;22.85;11.32;;;;;;;9.51;57.78;101411.97;4944897;28;100833;-66
2022/12/20 04:18:55;;;;;;;21.15;11.80;;;;;;;9.47;57.78;101405.84;4950655;28;96777;-65
2022/12/20 04:21:22;;;;;;;20.25;10.05;;;;;;;9.43;57.73;101398.91;4944827;28;96973;-66
2022/12/20 04:23:49;;;;;;;20.30;10.50;;;;;;;9.37;57.80;101399.03;4951932;28;99144;-67
2022/12/20 04:26:17;;;;;;;20.98;11.05;;;;;;;9.26;58.59;101386.94;4954962;28;99266;-66
2022/12/20 04:28:43;;;;;;;22.92;10.88;;;;;;;9.34;57.93;101382.41;4953200;28;96769;-65
2022/12/20 04:31:10;;;;;;;23.17;11.10;;;;;;;9.30;57.97;101384.25;4946502;28;97886;-64
2022/12/20 04:33:37;;;;;;;20.50;11.02;;;;;;;9.24;58.42;101394.03;4949126;28;102399;-64
2022/12/20 04:36:04;;;;;;;20.38;11.18;;;;;;;9.30;58.14;101391.28;4944567;28;98831;-65
2022/12/20 04:38:31;;;;;;;20.23;10.57;;;;;;;9.27;58.56;101392.19;4948783;28;96768;-66
2022/12/20 04:40:58;;;;;;;21.17;11.38;;;;;;;9.28;58.58;101396.56;4935829;28;96858;-66
2022/12/20 04:43:26;;;;;;;21.65;10.73;;;;;;;9.17;58.49;101390.66;4947864;28;99020;-65
2022/12/20 04:45:55;;;;;;;22.02;10.82;;;;;;;9.24;58.34;101386.13;4950922;28;99338;-67
2022/12/20 04:48:25;;;;;;;20.10;10.40;;;;;;;9.35;57.94;101389.41;4947907;28;96786;-66
2022/12/20 04:50:53;;;;;;;20.38;10.95;;;;;;;9.40;58.01;101382.25;4950579;28;97006;-65
2022/12/20 04:56:04;;;;;;;22.10;10.45;;;;;;;9.22;58.15;101387.91;4946751;28;97142;-66
2022/12/20 04:58:32;;;;;;;19.83;10.27;;;;;;;9.10;58.38;101389.03;4943604;28;96855;-65
2022/12/20 05:00:58;;;;;;;23.40;11.45;;;;;;;9.20;58.21;101380.03;4941112;28;96856;-65
2022/12/20 05:03:26;;;;;;;18.80;10.32;;;;;;;9.22;58.20;101385.28;4945755;28;98889;-65
2022/12/20 05:05:53;;;;;;;23.80;12.02;;;;;;;9.36;58.18;101381.47;4943566;28;101364;-65
2022/12/20 05:08:20;;;;;;;22.23;10.63;;;;;;;9.08;58.47;101388.19;4945706;28;96687;-65
2022/12/20 05:10:48;;;;;;;19.45;10.70;;;;;;;9.16;58.37;101387.16;4951970;28;97005;-65
2022/12/20 05:13:14;;;;;;;19.17;10.68;;;;;;;9.12;58.69;101376.69;4946557;28;99019;-66
2022/12/20 05:15:42;;;;;;;19.75;10.82;;;;;;;9.44;58.01;101384.84;4944929;28;99082;-65
2022/12/20 05:18:08;;;;;;;21.92;11.15;;;;;;;9.43;57.98;101388.38;4940609;28;96740;-65
2022/12/20 05:20:35;;;;;;;22.25;10.75;;;;;;;9.43;58.07;101387.50;4947288;28;96764;-66
2022/12/20 05:28:33;;;;;;;;;;;;;;;9.72;57.19;101361.34;4948404;28;96869;-64
2022/12/20 05:31:01;;;;;;;21.55;11.38;;;;;;;9.53;57.34;101352.97;4955725;28;96796;-66
2022/12/20 05:33:28;;;;;;;20.67;10.90;;;;;;;9.52;57.37;101345.06;4942319;28;99357;-65
2022/12/20 05:35:55;;;;;;;22.13;11.43;;;;;;;9.56;57.65;101373.16;4953278;28;99016;-65
2022/12/20 05:38:24;;;;;;;22.17;11.80;;;;;;;9.66;57.03;101372.03;4942340;28;98715;-65
2022/12/20 05:40:51;;;;;;;20.45;11.18;;;;;;;9.59;57.25;101365.16;4952180;28;97333;-65
2022/12/20 05:43:19;;;;;;;23.88;11.25;;;;;;;9.66;57.26;101353.56;4942586;28;98893;-65
2022/12/20 05:45:47;;;;;;;19.38;10.15;;;;;;;9.71;56.75;101356.13;4949400;28;100180;-66
2022/12/20 05:48:15;;;;;;;21.33;10.75;;;;;;;9.72;56.78;101352.56;4945563;28;96611;-68
2022/12/20 05:50:43;;;;;;;19.75;11.02;;;;;;;9.63;57.17;101352.78;4956293;28;96958;-66
2022/12/20 05:53:10;;;;;;;19.88;10.38;;;;;;;9.80;57.13;101356.75;4953309;28;98970;-66
2022/12/20 05:55:39;;;;;;;24.48;10.85;;;;;;;9.69;57.22;101368.47;4950901;28;100896;-66
2022/12/20 05:58:06;;;;;;;21.10;11.30;;;;;;;9.64;57.28;101365.06;4948592;28;96802;-66
2022/12/20 06:00:32;;;;;;;21.08;10.45;;;;;;;9.85;57.18;101354.88;4949180;28;96747;-66
2022/12/20 06:02:58;;;;;;;19.42;10.73;;;;;;;9.81;57.18;101352.34;4946270;28;99432;-66
2022/12/20 06:05:26;;;;;;;19.58;11.20;;;;;;;9.75;57.42;101348.09;4951179;28;99555;-66
2022/12/20 06:07:52;;;;;;;23.73;10.90;;;;;;;9.87;57.55;101347.81;4951306;28;96771;-67
2022/12/20 06:10:19;;;;;;;22.92;10.77;;;;;;;10.00;57.13;101366.88;4947821;28;96825;-64
2022/12/20 06:12:45;;;;;;;20.48;11.10;;;;;;;9.70;57.65;101373.72;4945184;28;98613;-66
2022/12/20 06:15:14;;;;;;;21.85;11.25;;;;;;;9.93;57.56;101360.00;4950562;28;97276;-66
2022/12/20 06:17:40;;;;;;;23.70;11.77;;;;;;;10.03;57.11;101368.59;4950805;28;96790;-65
2022/12/20 06:20:08;;;;;;;22.67;11.27;;;;;;;9.98;57.17;101377.47;4948311;28;96856;-66
2022/12/20 06:22:36;;;;;;;23.13;11.40;;;;;;;10.12;56.99;101378.91;4941074;28;99346;-66
2022/12/20 06:25:02;;;;;;;21.38;10.70;;;;;;;9.99;57.71;101380.97;4949279;28;99210;-65
2022/12/20 06:27:29;;;;;;;21.75;11.43;;;;;;;10.00;57.69;101383.59;4955576;28;96808;-66
2022/12/20 06:29:55;;;;;;;19.42;10.32;;;;;;;10.14;57.79;101387.66;4945008;28;96782;-65
2022/12/20 06:32:21;;;;;;;23.05;11.05;;;;;;;9.98;58.20;101382.75;4948998;28;99072;-66
2022/12/20 06:34:48;;;;;;;19.65;10.45;;;;;;;9.99;58.37;101381.84;4944062;28;97621;-66
2022/12/20 06:37:14;;;;;;;20.02;10.73;;;;;;;10.11;58.53;101372.75;4955255;28;96810;-66
2022/12/20 06:39:42;;;;;;;21.67;12.15;;;;;;;10.12;58.91;101378.91;4943588;28;96901;-66
2022/12/20 06:42:08;;;;;;;22.88;11.35;;;;;;;10.06;59.23;101374.66;4953872;28;98755;-66
2022/12/20 06:44:35;;;;;;;24.63;12.27;;;;;;;10.22;59.13;101383.13;4943666;28;99171;-65
2022/12/20 06:47:02;;;;;;;23.13;11.50;;;;;;;10.21;59.21;101384.03;4948800;28;97711;-66
2022/12/20 06:49:28;;;;;;;22.00;11.40;;;;;;;10.24;59.15;101386.59;4953023;28;97193;-66
2022/12/20 06:51:55;;;;;;;23.05;10.98;;;;;;;10.17;59.15;101387.66;4951179;28;99193;-67
2022/12/20 06:54:24;;;;;;;22.90;12.13;;;;;;;10.00;60.46;101385.34;4936559;28;98818;-66
2022/12/20 06:56:52;;;;;;;26.42;12.30;;;;;;;9.90;61.04;101391.75;4944956;28;96846;-66
2022/12/20 06:59:18;;;;;;;25.15;12.23;;;;;;;10.18;60.38;101386.72;4940090;28;96910;-67
2022/12/20 07:01:45;;;;;;;23.25;11.77;;;;;;;10.20;60.58;101382.28;4944508;28;99046;-67
2022/12/20 07:04:11;;;;;;;21.98;11.82;;;;;;;10.24;60.24;101383.97;4943335;28;98238;-66
2022/12/20 07:06:38;;;;;;;30.80;14.27;;;;;;;10.27;60.60;101383.88;4939157;28;98422;-66
2022/12/20 07:09:04;;;;;;;26.35;13.18;;;;;;;10.09;60.97;101386.91;4944203;28;97436;-65
2022/12/20 07:11:31;;;;;;;22.60;11.63;;;;;;;10.07;61.21;101396.63;4947608;28;99189;-65
2022/12/20 07:13:59;;;;;;;23.05;12.68;;;;;;;10.13;61.19;101385.94;4950405;28;101063;-66
2022/12/20 07:16:25;;;;;;;30.08;13.38;;;;;;;9.93;62.18;101394.31;4944906;28;96862;-67
2022/12/20 07:18:55;;;;;;;27.85;12.27;;;;;;;10.32;61.21;101387.25;4940827;28;97314;-67
2022/12/20 07:21:21;;;;;;;26.38;12.68;;;;;;;10.38;60.86;101398.53;4946372;28;98967;-66
2022/12/20 07:23:48;;;;;;;32.33;12.52;;;;;;;10.53;60.17;101396.44;4940598;28;98904;-66
2022/12/20 07:26:15;;;;;;;33.13;14.30;;;;;;;10.48;60.51;101404.50;4942900;28;98862;-66
2022/12/20 07:28:42;;;;;;;26.65;13.27;;;;;;;10.36;61.09;101410.06;4943614;28;97143;-65
2022/12/20 07:31:10;;;;;;;29.10;14.02;;;;;;;10.36;60.93;101412.72;4943360;28;99129;-67
2022/12/20 07:33:37;;;;;;;22.20;11.35;;;;;;;10.43;61.05;101411.66;4944824;28;99080;-65
2022/12/20 07:36:06;;;;;;;28.38;13.00;;;;;;;10.48;61.23;101415.06;4947363;28;98451;-65
2022/12/20 07:38:35;;;;;;;23.13;12.70;;;;;;;10.39;61.57;101413.50;4943954;28;98609;-73
2022/12/20 07:41:06;;;;;;;21.80;12.10;;;;;;;10.51;61.30;101420.25;4936700;28;98126;-72
2022/12/20 07:43:33;;;;;;;26.77;13.15;;;;;;;10.76;60.93;101415.25;4948961;28;99208;-74
2022/12/20 07:46:00;;;;;;;24.88;12.70;;;;;;;10.74;60.66;101423.22;4946250;28;97202;-74
2022/12/20 07:48:27;;;;;;;28.65;13.48;;;;;;;10.59;61.78;101431.50;4943995;28;97049;-73
2022/12/20 07:50:58;;;;;;;27.15;12.55;;;;;;;10.41;62.16;101426.69;4940189;28;99121;-73
2022/12/20 07:53:28;;;;;;;26.83;12.57;;;;;;;10.58;61.77;101424.47;4944294;28;100612;-74
2022/12/20 07:55:56;;;;;;;26.48;13.13;;;;;;;10.52;62.64;101427.28;4944047;28;96749;-73
2022/12/20 07:58:23;;;;;;;27.02;13.45;;;;;;;10.46;62.62;101429.19;4948389;28;100152;-73
2022/12/20 08:00:50;;;;;;;25.27;13.15;;;;;;;10.58;62.58;101429.75;4947050;28;99459;-72
2022/12/20 08:03:21;;;;;;;26.30;12.98;;;;;;;10.55;62.83;101429.00;4949006;28;98845;-73
2022/12/20 08:05:56;;;;;;;25.75;13.48;;;;;;;10.63;62.71;101419.94;4939360;28;98935;-73
2022/12/20 08:08:22;;;;;;;30.35;14.15;;;;;;;10.51;63.16;101422.03;4944074;28;98327;-72
2022/12/20 08:10:50;;;;;;;27.08;14.60;;;;;;;10.60;62.76;101419.16;4937992;28;99143;-72
2022/12/20 08:13:17;;;;;;;26.33;13.13;;;;;;;10.53;62.92;101423.72;4940385;28;98934;-72
2022/12/20 08:15:44;;;;;;;29.15;13.98;;;;;;;10.50;63.31;101421.16;4924532;28;99091;-73
2022/12/20 08:18:10;;;;;;;27.00;13.30;;;;;;;10.55;63.41;101421.06;4941517;28;97219;-74
2022/12/20 08:20:37;;;;;;;24.95;12.63;;;;;;;10.62;63.25;101423.53;4937113;28;99217;-74
2022/12/20 08:23:05;;;;;;;26.50;13.48;;;;;;;10.54;63.67;101421.97;4942353;28;99146;-73
2022/12/20 08:25:33;;;;;;;29.25;14.13;;;;;;;10.64;63.57;101412.88;4944942;28;97547;-74
2022/12/20 08:28:01;;;;;;;25.23;13.60;;;;;;;10.71;63.24;101411.81;4944447;28;98108;-74
2022/12/20 08:30:27;;;;;;;29.33;14.48;;;;;;;10.68;63.13;101418.06;4948619;28;100304;-74
2022/12/20 08:32:54;;;;;;;29.17;13.43;;;;;;;10.70;63.38;101421.53;4948423;28;98907;-73
2022/12/20 08:35:21;;;;;;;29.10;14.02;;;;;;;10.38;64.85;101406.47;4950909;28;98191;-74
2022/12/20 08:37:48;;;;;;;29.70;13.43;;;;;;;10.43;64.57;101409.03;4944105;28;97252;-73
2022/12/20 08:40:17;;;;;;;28.65;14.85;;;;;;;10.32;65.30;101392.53;4949117;28;99915;-73
2022/12/20 08:42:44;;;;;;;33.40;13.52;;;;;;;10.63;64.67;101388.22;4940589;28;101628;-73
2022/12/20 08:45:11;;;;;;;30.05;14.40;;;;;;;10.84;63.52;101405.31;4948333;28;96782;-74
2022/12/20 08:47:38;;;;;;;33.22;14.20;;;;;;;10.74;63.84;101395.91;4938673;28;97616;-75
2022/12/20 08:50:06;;;;;;;28.02;13.80;;;;;;;10.81;63.93;101396.59;4941995;28;99335;-73
2022/12/20 08:52:33;;;;;;;25.67;13.77;;;;;;;10.81;64.06;101400.13;4946663;28;97734;-73
2022/12/20 08:54:59;;;;;;;24.77;13.65;;;;;;;10.67;64.87;101394.31;4942560;28;96775;-74
2022/12/20 08:57:27;;;;;;;29.25;13.70;;;;;;;10.87;63.83;101402.59;4949811;28;97295;-75
2022/12/20 08:59:54;;;;;;;28.92;13.85;;;;;;;10.61;64.91;101395.34;4944713;28;101267;-74
2022/12/20 09:02:20;;;;;;;28.98;14.02;;;;;;;10.73;64.55;101400.31;4934636;28;97577;-73
2022/12/20 09:04:47;;;;;;;24.67;12.95;;;;;;;10.86;64.28;101400.88;4942802;28;98220;-72
2022/12/20 09:07:14;;;;;;;30.33;14.38;;;;;;;10.71;64.90;101388.91;4951601;28;96865;-73
2022/12/20 09:09:40;;;;;;;29.17;13.23;;;;;;;10.82;64.42;101395.72;4948739;28;100076;-73
2022/12/20 09:12:07;;;;;;;29.45;13.55;;;;;;;10.83;64.32;101389.53;4947361;28;98023;-73
2022/12/20 09:14:35;;;;;;;26.48;13.77;;;;;;;10.90;64.50;101391.06;4944777;28;98446;-76
2022/12/20 09:17:01;;;;;;;24.55;13.13;;;;;;;11.06;63.87;101387.09;4948939;28;97187;-75
2022/12/20 09:19:28;;;;;;;28.42;14.65;;;;;;;11.05;64.01;101386.25;4942678;28;98880;-73
2022/12/20 09:21:55;;;;;;;24.10;13.30;;;;;;;10.99;64.11;101386.41;4950971;28;100970;-73
2022/12/20 09:24:22;;;;;;;27.23;13.52;;;;;;;11.01;64.23;101375.78;4950762;28;96749;-73
2022/12/20 09:26:48;;;;;;;29.98;14.73;;;;;;;11.26;63.49;101368.91;4945909;28;97433;-75
2022/12/20 09:29:15;;;;;;;25.48;13.63;;;;;;;11.21;63.97;101370.81;4948088;28;99143;-74
2022/12/20 09:31:43;;;;;;;30.00;15.13;;;;;;;11.26;63.99;101378.63;4951614;28;98837;-73
2022/12/20 09:34:09;;;;;;;26.13;13.77;;;;;;;11.14;63.79;101374.56;4952357;28;97289;-72
2022/12/20 09:36:37;;;;;;;27.80;13.35;;;;;;;11.29;63.67;101378.56;4943562;28;98315;-73
2022/12/20 09:39:04;;;;;;;28.02;13.52;;;;;;;11.44;63.36;101368.38;4944674;28;99159;-73
2022/12/20 09:41:35;;;;;;;31.10;14.35;;;;;;;11.50;63.23;101368.19;4945595;28;98862;-73
2022/12/20 09:44:06;;;;;;;25.45;14.20;;;;;;;11.42;63.58;101369.34;4948255;28;98962;-73
2022/12/20 09:46:33;;;;;;;23.45;12.60;;;;;;;11.84;62.86;101370.72;4951159;28;97615;-73
2022/12/20 09:49:02;;;;;;;26.42;12.95;;;;;;;11.72;62.83;101364.91;4943322;28;99415;-74
2022/12/20 09:51:39;;;;;;;26.70;13.48;;;;;;;11.75;62.82;101367.50;4948282;28;100217;-73
2022/12/20 09:54:17;;;;;;;26.33;12.85;;;;;;;12.00;61.76;101368.47;4945171;28;97190;-75
2022/12/20 09:56:48;;;;;;;21.88;12.70;;;;;;;11.96;61.82;101365.03;4943814;28;96799;-74
2022/12/20 09:59:17;;;;;;;29.65;13.50;;;;;;;12.04;61.79;101377.19;4945271;28;98946;-72
2022/12/20 10:01:46;;;;;;;26.98;12.07;;;;;;;12.01;61.05;101374.66;4948925;28;102371;-73
2022/12/20 10:04:20;;;;;;;27.17;12.90;;;;;;;11.90;61.51;101372.31;4951719;28;98875;-73
2022/12/20 10:07:00;;;;;;;21.55;12.10;;;;;;;11.96;61.55;101383.59;4952295;28;97658;-72
2022/12/20 10:09:45;;;;;;;27.10;12.52;;;;;;;12.17;60.69;101379.41;4955716;28;98919;-73
2022/12/20 10:12:21;;;;;;;27.98;13.07;;;;;;;11.95;61.34;101381.84;4947177;28;98701;-76
2022/12/20 10:15:03;;;;;;;21.77;12.02;;;;;;;11.97;61.19;101374.72;4947219;28;97894;-74
2022/12/20 10:17:42;;;;;;;22.13;11.65;;;;;;;12.07;60.76;101370.03;4947837;28;98576;-73
2022/12/20 10:20:22;;;;;;;27.63;13.45;;;;;;;12.15;61.00;101377.69;4945235;28;98280;-72
2022/12/20 10:22:57;;;;;;;21.15;12.00;;;;;;;12.24;60.54;101373.00;4949742;28;99327;-73
2022/12/20 10:25:29;;;;;;;25.27;11.40;;;;;;;12.31;60.30;101360.41;4949593;28;97656;-73
2022/12/20 10:27:56;;;;;;;24.40;12.15;;;;;;;12.50;59.82;101358.88;4950510;28;97758;-74
2022/12/20 10:30:27;;;;;;;24.63;11.88;;;;;;;12.49;60.01;101350.97;4945693;28;98131;-74
2022/12/20 10:33:00;;;;;;;21.35;12.80;;;;;;;12.29;60.32;101349.84;4946359;28;99037;-74
2022/12/20 10:35:30;;;;;;;20.55;11.25;;;;;;;12.23;60.30;101334.16;4947968;28;97742;-74
2022/12/20 10:37:59;;;;;;;24.33;11.00;;;;;;;12.18;60.23;101329.94;4946035;28;96858;-72
2022/12/20 10:40:28;;;;;;;29.95;15.25;;;;;;;12.32;60.36;101322.41;4935328;28;99310;-72
2022/12/20 10:42:55;;;;;;;25.55;12.88;;;;;;;12.41;59.95;101313.25;4939615;28;99257;-73
2022/12/20 10:45:33;;;;;;;27.65;12.68;;;;;;;12.52;60.08;101295.22;4944486;28;97245;-73
2022/12/20 10:48:01;;;;;;;20.45;11.73;;;;;;;12.46;60.26;101301.59;4941048;28;97307;-74
2022/12/20 10:50:29;;;;;;;22.42;11.50;;;;;;;12.71;59.68;101305.13;4952566;28;98282;-73
2022/12/20 10:53:20;;;;;;;22.50;11.43;;;;;;;12.93;59.17;101293.75;4945392;28;98822;-74
2022/12/20 10:55:46;;;;;;;19.40;11.00;;;;;;;13.06;58.53;101300.34;4945826;28;97934;-72
2022/12/20 10:58:16;;;;;;;20.98;10.88;;;;;;;12.92;58.35;101295.53;4943907;28;97803;-73
2022/12/20 11:00:44;;;;;;;19.13;10.75;;;;;;;12.80;58.64;101279.19;4944405;28;98581;-72
2022/12/20 11:03:15;;;;;;;23.70;12.05;;;;;;;13.04;58.35;101271.19;4946015;28;99165;-73
2022/12/20 11:05:55;;;;;;;19.90;10.75;;;;;;;12.98;58.51;101268.78;4935241;28;99495;-72
2022/12/20 11:08:25;;;;;;;25.02;11.52;;;;;;;12.88;58.09;101270.03;4934863;28;99155;-73
2022/12/20 11:11:09;;;;;;;23.88;12.45;;;;;;;12.92;58.47;101254.88;4945274;28;99270;-72
2022/12/20 11:13:36;;;;;;;20.73;10.52;;;;;;;12.84;58.38;101263.09;4947189;28;98718;-71
2022/12/20 11:16:03;;;;;;;27.05;11.43;;;;;;;12.76;58.65;101249.25;4943553;28;97830;-72
2022/12/20 11:18:43;;;;;;;20.40;10.45;;;;;;;12.69;58.92;101242.44;4949570;28;97331;-72
2022/12/20 11:21:22;;;;;;;21.10;11.15;;;;;;;12.52;58.90;101235.13;4943090;28;98910;-73
2022/12/20 11:23:56;;;;;;;20.70;10.32;;;;;;;12.57;58.59;101251.72;4945215;28;98114;-73
2022/12/20 11:26:36;;;;;;;20.50;10.45;;;;;;;12.32;59.44;101241.13;4943721;28;97721;-73
2022/12/20 11:29:17;;;;;;;20.35;10.55;;;;;;;12.41;59.21;101239.03;4946091;28;97395;-73
2022/12/20 11:31:51;;;;;;;20.98;10.98;;;;;;;12.66;59.05;101243.44;4944596;28;97700;-72
2022/12/20 11:34:33;;;;;;;22.83;10.55;;;;;;;12.55;58.88;101231.47;4949943;28;96820;-74